Time;durP1;ratioP1;P1;durP2;ratioP2;P2;SDS_P1;SDS_P2;PMS_P1;PMS_P2;Temp;Humidity;BMP_temperature;BMP_pressure;BME280_temperature;BME280_humidity;BME280_pressure;Samples;Min_cycle;Max_cycle;Signal;HPM_P1;HPM_P2
2021/05/02 00:01:50;;;;;;;11.45;9.07;;;8.70;90.40;;;;;;4960517;28;20041;-87
2021/05/02 00:04:19;;;;;;;16.20;9.43;;;8.70;90.50;;;;;;4989529;28;20060;-86
2021/05/02 00:06:45;;;;;;;14.02;9.88;;;8.70;90.70;;;;;;4989859;28;20026;-87
2021/05/02 00:09:11;;;;;;;12.90;9.80;;;8.70;90.70;;;;;;4995009;28;20025;-87
2021/05/02 00:11:37;;;;;;;11.60;9.30;;;8.60;90.70;;;;;;4999177;28;20033;-87
2021/05/02 00:14:04;;;;;;;12.68;10.02;;;8.60;90.70;;;;;;4999552;28;20033;-86
2021/05/02 00:16:31;;;;;;;14.38;9.95;;;8.60;90.80;;;;;;5016179;28;20069;-87
2021/05/02 00:18:57;;;;;;;13.32;11.15;;;8.60;90.80;;;;;;5010429;28;20026;-86
2021/05/02 00:24:47;;;;;;;14.77;9.70;;;8.60;91.10;;;;;;5008596;28;20080;-86
2021/05/02 00:27:13;;;;;;;12.57;9.65;;;8.60;91.20;;;;;;5015752;28;20026;-86
2021/05/02 00:29:42;;;;;;;12.07;9.45;;;8.50;91.20;;;;;;4997816;28;20486;-86
2021/05/02 00:32:08;;;;;;;12.40;9.20;;;8.50;91.10;;;;;;4986039;28;20022;-87
2021/05/02 00:34:38;;;;;;;11.80;8.95;;;8.50;91.10;;;;;;4998749;28;20474;-86
2021/05/02 00:37:05;;;;;;;12.80;9.57;;;8.50;91.00;;;;;;4998862;28;20034;-85
2021/05/02 00:39:34;;;;;;;12.13;9.43;;;8.50;90.90;;;;;;4987101;28;20062;-86
2021/05/02 00:42:03;;;;;;;14.20;9.98;;;8.40;91.20;;;;;;5012543;28;20022;-88
2021/05/02 00:44:48;;;;;;;14.15;10.52;;;8.40;91.20;;;;;;4997656;28;20458;-86
2021/05/02 00:47:23;;;;;;;11.48;8.73;;;8.40;91.20;;;;;;5009509;28;20030;-86
2021/05/02 00:50:07;;;;;;;13.25;9.07;;;8.30;91.30;;;;;;4990644;28;20022;-87
2021/05/02 00:52:47;;;;;;;13.70;9.88;;;8.30;91.40;;;;;;4995307;28;20061;-86
2021/05/02 00:55:20;;;;;;;13.90;9.15;;;8.30;91.50;;;;;;4992635;28;20033;-87
2021/05/02 00:58:05;;;;;;;13.23;9.02;;;8.30;91.50;;;;;;4998431;28;20029;-90
2021/05/02 01:00:39;;;;;;;11.60;8.75;;;8.20;91.70;;;;;;4967406;28;20035;-86
2021/05/02 01:03:07;;;;;;;12.73;9.50;;;8.30;91.70;;;;;;4991103;28;20034;-85
2021/05/02 01:05:34;;;;;;;12.32;8.93;;;8.20;91.80;;;;;;4994734;28;20509;-86
2021/05/02 01:08:02;;;;;;;10.20;8.07;;;8.20;91.80;;;;;;4968209;28;20076;-88
2021/05/02 01:10:29;;;;;;;10.85;8.32;;;8.20;91.90;;;;;;4996899;28;20028;-86
2021/05/02 01:12:58;;;;;;;14.45;8.55;;;8.20;91.90;;;;;;4982764;28;20030;-86
2021/05/02 01:15:34;;;;;;;12.02;8.27;;;8.20;91.90;;;;;;5013445;28;20057;-86
2021/05/02 01:18:03;;;;;;;11.13;8.10;;;8.20;92.00;;;;;;4963074;28;20037;-86
2021/05/02 01:20:37;;;;;;;11.68;8.30;;;8.20;92.00;;;;;;4980355;28;20482;-86
2021/05/02 01:23:10;;;;;;;10.35;8.10;;;8.20;92.10;;;;;;4997196;28;20036;-86
2021/05/02 01:25:37;;;;;;;10.60;7.90;;;8.20;92.20;;;;;;4976868;28;20037;-86
2021/05/02 01:28:04;;;;;;;12.27;8.00;;;8.20;92.40;;;;;;4976199;28;20069;-87
2021/05/02 01:30:30;;;;;;;12.05;7.80;;;8.20;92.40;;;;;;4984333;28;20030;-87
2021/05/02 01:32:56;;;;;;;10.43;7.50;;;8.20;92.30;;;;;;4981134;28;20038;-86
2021/05/02 01:35:22;;;;;;;11.18;6.90;;;8.20;92.40;;;;;;4976619;28;20046;-86
2021/05/02 01:37:49;;;;;;;13.10;7.50;;;8.20;92.40;;;;;;4992568;28;20122;-90
2021/05/02 01:40:17;;;;;;;10.23;7.07;;;8.20;92.30;;;;;;4992167;28;20046;-86
2021/05/02 01:42:42;;;;;;;10.93;6.45;;;8.20;92.20;;;;;;4959751;28;20503;-86
2021/05/02 01:45:17;;;;;;;10.25;6.47;;;8.20;92.10;;;;;;4975511;28;20145;-87
2021/05/02 01:47:47;;;;;;;12.55;6.65;;;8.20;92.10;;;;;;4976087;28;20038;-86
2021/05/02 01:50:16;;;;;;;9.43;6.10;;;8.20;92.00;;;;;;4992729;28;20125;-87
2021/05/02 01:52:51;;;;;;;7.70;5.47;;;8.20;92.10;;;;;;4976191;28;20594;-85
2021/05/02 01:55:18;;;;;;;9.70;5.95;;;8.20;92.10;;;;;;4975974;28;20030;-86
2021/05/02 01:57:47;;;;;;;7.78;5.07;;;8.20;92.00;;;;;;4970751;28;20038;-86
2021/05/02 02:00:25;;;;;;;8.27;4.95;;;8.20;91.80;;;;;;4990698;28;20023;-84
2021/05/02 02:02:58;;;;;;;8.52;4.75;;;8.20;91.70;;;;;;4993185;28;20030;-86
2021/05/02 02:05:25;;;;;;;7.70;4.93;;;8.10;91.70;;;;;;4993249;28;20046;-87
2021/05/02 02:07:51;;;;;;;6.82;4.65;;;8.10;91.50;;;;;;4980322;28;20030;-88
2021/05/02 02:10:21;;;;;;;8.32;4.55;;;8.10;91.60;;;;;;5012893;28;20099;-86
2021/05/02 02:12:49;;;;;;;8.57;4.78;;;8.00;91.40;;;;;;4976940;28;20125;-86
2021/05/02 02:15:15;;;;;;;10.05;4.55;;;8.00;91.60;;;;;;4977286;28;20036;-86
2021/05/02 02:17:42;;;;;;;10.35;4.43;;;8.00;91.50;;;;;;4984288;28;20049;-87
2021/05/02 02:20:09;;;;;;;8.35;4.63;;;8.00;91.40;;;;;;4981741;28;20049;-86
2021/05/02 02:22:41;;;;;;;8.05;4.72;;;8.00;91.40;;;;;;4984284;28;20030;-86
2021/05/02 02:25:09;;;;;;;8.43;4.88;;;7.90;91.40;;;;;;4999823;28;20484;-86
2021/05/02 02:27:37;;;;;;;9.00;4.78;;;7.90;91.40;;;;;;5016628;28;20061;-87
2021/05/02 02:30:08;;;;;;;7.82;4.80;;;7.90;91.50;;;;;;4994319;28;20025;-86
2021/05/02 02:32:41;;;;;;;10.68;5.00;;;7.90;91.60;;;;;;5000491;28;20022;-86
2021/05/02 02:35:08;;;;;;;11.02;6.15;;;7.80;91.50;;;;;;5000143;28;20065;-86
2021/05/02 02:37:37;;;;;;;7.55;5.35;;;7.80;91.60;;;;;;4983574;28;20054;-86
2021/05/02 02:40:06;;;;;;;11.15;4.75;;;7.80;91.70;;;;;;4970726;28;20476;-86
2021/05/02 02:42:35;;;;;;;10.85;5.85;;;7.70;91.70;;;;;;4989364;28;20052;-87
2021/05/02 02:45:07;;;;;;;11.85;5.63;;;7.70;91.80;;;;;;4980399;28;20058;-88
2021/05/02 02:47:38;;;;;;;10.05;5.35;;;7.70;92.00;;;;;;4998852;28;20378;-87
2021/05/02 02:50:10;;;;;;;9.07;5.25;;;7.60;92.00;;;;;;4999012;28;20539;-87
2021/05/02 02:52:56;;;;;;;8.40;5.28;;;7.60;92.00;;;;;;4997487;28;20045;-88
2021/05/02 02:55:24;;;;;;;7.50;4.95;;;7.70;92.20;;;;;;5007692;28;20037;-88
2021/05/02 02:57:53;;;;;;;7.88;4.85;;;7.60;92.20;;;;;;4995919;28;20054;-88
2021/05/02 03:00:23;;;;;;;9.27;4.85;;;7.60;92.20;;;;;;4998736;28;20034;-88
2021/05/02 03:03:02;;;;;;;7.25;4.75;;;7.60;92.20;;;;;;4998672;28;20030;-88
2021/05/02 03:05:28;;;;;;;8.43;5.28;;;7.60;92.30;;;;;;4993642;28;20054;-87
2021/05/02 03:07:56;;;;;;;7.80;5.25;;;7.60;92.40;;;;;;4979489;28;20019;-88
2021/05/02 03:10:23;;;;;;;8.63;4.65;;;7.60;92.40;;;;;;4962711;28;20038;-87
2021/05/02 03:12:50;;;;;;;11.30;4.40;;;7.60;92.50;;;;;;4979705;28;20038;-88
2021/05/02 03:15:16;;;;;;;9.38;4.68;;;7.60;92.50;;;;;;4962556;28;20409;-88
2021/05/02 03:17:46;;;;;;;8.20;4.35;;;7.60;92.40;;;;;;4982353;28;20482;-87
2021/05/02 03:20:14;;;;;;;7.10;4.18;;;7.60;92.50;;;;;;4986526;28;20037;-88
2021/05/02 03:22:52;;;;;;;9.93;3.92;;;7.50;92.40;;;;;;4977807;28;20118;-90
2021/05/02 03:25:23;;;;;;;8.50;3.90;;;7.60;92.40;;;;;;4976682;28;20178;-89
2021/05/02 03:27:59;;;;;;;7.18;3.80;;;7.50;92.40;;;;;;4975762;28;20092;-88
2021/05/02 03:30:26;;;;;;;8.77;3.97;;;7.50;92.40;;;;;;4978782;28;20215;-88
2021/05/02 03:32:55;;;;;;;8.98;3.72;;;7.50;92.40;;;;;;4962821;28;20038;-87
2021/05/02 03:35:26;;;;;;;8.15;3.67;;;7.50;92.40;;;;;;4978892;28;20085;-87
2021/05/02 03:38:05;;;;;;;9.20;4.00;;;7.50;92.50;;;;;;4979417;28;20084;-87
2021/05/02 03:40:31;;;;;;;9.20;3.85;;;7.40;92.40;;;;;;4996012;28;20093;-88
2021/05/02 03:42:58;;;;;;;7.90;3.88;;;7.40;92.40;;;;;;4979300;28;20038;-88
2021/05/02 03:45:23;;;;;;;11.10;3.67;;;7.40;92.50;;;;;;4990836;28;20061;-88
2021/05/02 03:47:49;;;;;;;6.95;3.60;;;7.40;92.60;;;;;;4963377;28;20022;-87
2021/05/02 03:50:15;;;;;;;6.65;3.22;;;7.40;92.60;;;;;;4959954;28;20034;-88
2021/05/02 03:52:40;;;;;;;7.88;3.55;;;7.40;92.70;;;;;;4982945;28;20030;-88
2021/05/02 03:55:07;;;;;;;6.72;3.17;;;7.40;92.80;;;;;;4961933;28;20027;-87
2021/05/02 03:57:33;;;;;;;8.13;3.75;;;7.40;92.80;;;;;;4962705;28;20030;-88
2021/05/02 03:59:58;;;;;;;7.72;3.38;;;7.40;92.80;;;;;;4963187;28;20442;-87
2021/05/02 04:02:24;;;;;;;7.93;3.78;;;7.40;92.80;;;;;;4943376;28;20062;-88
2021/05/02 04:04:50;;;;;;;8.07;3.25;;;7.40;92.50;;;;;;4968671;28;20058;-88
2021/05/02 04:07:17;;;;;;;7.22;3.20;;;7.40;92.30;;;;;;4994464;28;20371;-88
2021/05/02 04:09:46;;;;;;;8.82;3.50;;;7.40;92.30;;;;;;4973185;28;20025;-88
2021/05/02 04:12:13;;;;;;;6.10;3.05;;;7.30;92.40;;;;;;4984389;28;20022;-88
2021/05/02 04:14:39;;;;;;;8.30;3.33;;;7.30;92.40;;;;;;4981676;28;20030;-87
2021/05/02 04:17:10;;;;;;;10.23;3.60;;;7.40;92.50;;;;;;4997512;28;20493;-88
2021/05/02 04:19:37;;;;;;;;;;;7.30;92.20;;;;;;4996808;28;20033;-88
2021/05/02 04:22:04;;;;;;;6.90;3.20;;;7.30;92.40;;;;;;4997399;28;19905;-88
2021/05/02 04:24:30;;;;;;;9.38;3.60;;;7.20;92.40;;;;;;4993542;28;20117;-88
2021/05/02 04:26:57;;;;;;;6.68;3.45;;;7.20;92.40;;;;;;4987847;28;20118;-88
2021/05/02 04:29:24;;;;;;;8.75;3.60;;;7.20;92.50;;;;;;4981492;28;20042;-88
2021/05/02 04:31:50;;;;;;;6.07;3.28;;;7.10;92.70;;;;;;4997129;28;20053;-89
2021/05/02 04:34:20;;;;;;;6.22;3.42;;;7.10;92.40;;;;;;4984982;28;20061;-89
2021/05/02 04:36:47;;;;;;;9.55;3.47;;;7.10;92.50;;;;;;4977624;28;20063;-88
2021/05/02 04:39:13;;;;;;;6.63;3.42;;;7.00;92.50;;;;;;5013696;28;20022;-89
2021/05/02 04:41:39;;;;;;;7.55;3.95;;;7.10;92.50;;;;;;4997766;28;20026;-88
2021/05/02 04:44:05;;;;;;;8.00;3.47;;;7.00;92.40;;;;;;4997519;28;20048;-88
2021/05/02 04:46:30;;;;;;;7.25;3.83;;;7.00;92.60;;;;;;5013649;28;20026;-87
2021/05/02 04:48:56;;;;;;;7.00;3.30;;;7.00;92.50;;;;;;4997063;28;20053;-88
2021/05/02 04:51:22;;;;;;;7.20;2.92;;;7.00;92.50;;;;;;4997140;28;20022;-88
2021/05/02 04:53:49;;;;;;;5.28;3.38;;;7.00;92.60;;;;;;4997098;28;20043;-88
2021/05/02 04:56:15;;;;;;;9.10;3.33;;;7.00;92.60;;;;;;4983157;28;20022;-88
2021/05/02 04:58:42;;;;;;;7.22;3.45;;;6.90;92.50;;;;;;4997270;28;20532;-88
2021/05/02 05:01:08;;;;;;;11.23;3.50;;;6.90;92.40;;;;;;4997037;28;20076;-88
2021/05/02 05:03:34;;;;;;;6.88;3.22;;;6.90;92.50;;;;;;4987937;28;20030;-88
2021/05/02 05:06:00;;;;;;;6.95;3.45;;;6.90;92.60;;;;;;4972871;28;20069;-88
2021/05/02 05:08:26;;;;;;;7.25;3.20;;;6.80;92.60;;;;;;4965378;28;20026;-88
2021/05/02 05:10:52;;;;;;;6.18;3.10;;;6.80;92.60;;;;;;4993490;28;20034;-88
2021/05/02 05:13:18;;;;;;;5.03;3.00;;;6.80;92.60;;;;;;4947493;28;20026;-90
2021/05/02 05:15:43;;;;;;;8.63;3.45;;;6.80;92.60;;;;;;4961362;28;20058;-89
2021/05/02 05:18:09;;;;;;;4.70;3.13;;;6.80;92.60;;;;;;4972421;28;20101;-89
2021/05/02 05:20:35;;;;;;;7.13;3.00;;;6.80;92.70;;;;;;4966492;28;20035;-88
2021/05/02 05:23:01;;;;;;;5.25;3.22;;;6.80;92.70;;;;;;4979735;28;20031;-89
2021/05/02 05:25:27;;;;;;;6.25;3.35;;;6.80;92.70;;;;;;4982359;28;20018;-88
2021/05/02 05:27:52;;;;;;;6.90;3.33;;;6.80;92.70;;;;;;4976647;28;20014;-88
2021/05/02 05:30:18;;;;;;;5.88;3.33;;;6.80;92.90;;;;;;4958191;28;20542;-88
2021/05/02 05:32:44;;;;;;;6.85;2.90;;;6.80;92.80;;;;;;4961805;28;20045;-88
2021/05/02 05:35:12;;;;;;;8.40;3.33;;;6.80;92.90;;;;;;4945933;28;20076;-88
2021/05/02 05:37:39;;;;;;;8.20;3.42;;;6.80;92.80;;;;;;4977447;28;20034;-88
2021/05/02 05:40:06;;;;;;;7.47;3.60;;;6.80;92.70;;;;;;4976415;28;20025;-88
2021/05/02 05:42:35;;;;;;;8.05;3.10;;;6.80;92.70;;;;;;4942401;28;20038;-88
2021/05/02 05:45:03;;;;;;;7.57;3.58;;;6.80;92.70;;;;;;4942603;28;20031;-88
2021/05/02 05:47:29;;;;;;;5.05;2.97;;;6.80;92.70;;;;;;4958206;28;20034;-88
2021/05/02 05:49:55;;;;;;;5.57;3.05;;;6.90;92.80;;;;;;4973055;28;20023;-88
2021/05/02 05:52:22;;;;;;;4.88;2.72;;;6.90;92.80;;;;;;4961681;28;20038;-88
2021/05/02 05:54:47;;;;;;;7.82;3.10;;;6.90;92.80;;;;;;4965608;28;20038;-88
2021/05/02 05:57:13;;;;;;;7.82;3.20;;;6.90;92.80;;;;;;4964972;28;20101;-87
2021/05/02 05:59:39;;;;;;;5.53;3.15;;;7.00;92.80;;;;;;4965883;28;20032;-87
2021/05/02 06:02:04;;;;;;;7.35;3.08;;;7.00;92.80;;;;;;4965916;28;20073;-87
2021/05/02 06:04:30;;;;;;;7.93;3.38;;;7.10;92.80;;;;;;4973308;28;20049;-88
2021/05/02 06:06:56;;;;;;;6.50;3.08;;;7.10;93.00;;;;;;5004215;28;20493;-88
2021/05/02 06:09:24;;;;;;;7.80;4.00;;;7.20;93.10;;;;;;4967142;28;20084;-88
2021/05/02 06:11:50;;;;;;;8.23;3.55;;;7.20;93.10;;;;;;4985047;28;20026;-87
2021/05/02 06:14:16;;;;;;;6.00;3.05;;;7.30;93.30;;;;;;4981049;28;20042;-88
2021/05/02 06:16:41;;;;;;;7.50;2.88;;;7.40;93.20;;;;;;4984078;28;20103;-88
2021/05/02 06:19:07;;;;;;;7.70;3.58;;;7.40;93.10;;;;;;4967712;28;20040;-87
2021/05/02 06:21:34;;;;;;;6.68;2.88;;;7.50;93.40;;;;;;5000120;28;20026;-88
2021/05/02 06:24:00;;;;;;;9.60;2.90;;;7.60;92.80;;;;;;5017795;28;20474;-88
2021/05/02 06:26:26;;;;;;;8.90;2.70;;;7.60;92.90;;;;;;4984556;28;20113;-87
2021/05/02 06:28:52;;;;;;;6.38;2.30;;;7.70;92.80;;;;;;4996590;28;20037;-87
2021/05/02 06:31:19;;;;;;;5.05;2.53;;;7.80;92.90;;;;;;4997084;28;20411;-88
2021/05/02 06:33:46;;;;;;;9.23;2.55;;;7.80;92.70;;;;;;5000151;28;20129;-87
2021/05/02 06:36:12;;;;;;;6.07;2.20;;;7.90;92.40;;;;;;5014436;28;20053;-88
2021/05/02 06:38:38;;;;;;;6.47;2.65;;;8.00;92.60;;;;;;4999828;28;20030;-87
2021/05/02 06:41:06;;;;;;;5.07;2.13;;;8.10;92.10;;;;;;5016237;28;20378;-87
2021/05/02 06:43:32;;;;;;;6.80;2.38;;;8.10;92.20;;;;;;5016286;28;20034;-90
2021/05/02 06:45:58;;;;;;;6.32;2.22;;;8.20;91.80;;;;;;4998443;28;20018;-88
2021/05/02 06:48:30;;;;;;;5.13;2.15;;;8.30;91.60;;;;;;4996889;28;20037;-87
2021/05/02 06:50:55;;;;;;;6.25;2.08;;;8.30;91.30;;;;;;4999333;28;20014;-86
2021/05/02 06:53:21;;;;;;;4.05;1.75;;;8.40;91.30;;;;;;4987468;28;20513;-85
2021/05/02 06:55:47;;;;;;;6.20;2.00;;;8.50;91.50;;;;;;4983323;28;20488;-89
2021/05/02 06:58:13;;;;;;;5.45;2.17;;;8.50;91.40;;;;;;4980786;28;20025;-89
2021/05/02 07:00:39;;;;;;;5.07;2.17;;;8.60;91.20;;;;;;4995950;28;20030;-89
2021/05/02 07:03:06;;;;;;;5.45;2.08;;;8.70;91.10;;;;;;4995509;28;20029;-87
2021/05/02 07:05:37;;;;;;;4.85;2.03;;;8.80;91.00;;;;;;4995224;28;20111;-87
2021/05/02 07:08:03;;;;;;;5.25;1.88;;;8.90;90.60;;;;;;5017993;28;20230;-88
2021/05/02 07:10:29;;;;;;;5.18;2.08;;;9.00;90.10;;;;;;4982697;28;20029;-91
2021/05/02 07:12:55;;;;;;;4.55;1.88;;;9.00;90.10;;;;;;4995616;28;20043;-87
2021/05/02 07:15:21;;;;;;;5.57;2.40;;;9.10;90.30;;;;;;5003144;28;20421;-86
2021/05/02 07:17:47;;;;;;;2.97;1.80;;;9.20;90.30;;;;;;4997287;28;20425;-87
2021/05/02 07:20:14;;;;;;;3.85;1.85;;;9.30;90.20;;;;;;4982608;28;20120;-86
2021/05/02 07:22:43;;;;;;;4.85;2.20;;;9.40;89.70;;;;;;4982936;28;20037;-87
2021/05/02 07:25:09;;;;;;;4.35;2.00;;;9.50;89.10;;;;;;5004622;28;20385;-86
2021/05/02 07:27:34;;;;;;;4.60;2.13;;;9.60;88.70;;;;;;4985931;28;20052;-86
2021/05/02 07:30:00;;;;;;;6.88;2.67;;;9.70;88.30;;;;;;4988471;28;20071;-86
2021/05/02 07:32:26;;;;;;;5.13;1.50;;;9.80;88.00;;;;;;4990920;28;20029;-86
2021/05/02 07:34:51;;;;;;;6.22;1.60;;;9.80;86.50;;;;;;4998921;28;20402;-86
2021/05/02 07:37:18;;;;;;;4.25;1.88;;;10.00;85.70;;;;;;4998610;28;20119;-86
2021/05/02 07:39:43;;;;;;;2.88;1.27;;;10.00;84.50;;;;;;4982353;28;20038;-86
2021/05/02 07:42:09;;;;;;;2.67;1.50;;;10.00;84.90;;;;;;5015525;28;20045;-87
2021/05/02 07:44:35;;;;;;;4.70;1.50;;;10.10;85.80;;;;;;4982585;28;20030;-87
2021/05/02 07:47:00;;;;;;;7.28;2.10;;;10.20;85.10;;;;;;5015416;28;20030;-86
2021/05/02 07:49:26;;;;;;;5.53;1.52;;;10.30;83.80;;;;;;5014687;28;20026;-85
2021/05/02 07:51:52;;;;;;;3.92;1.30;;;10.40;83.30;;;;;;4998045;28;20040;-86
2021/05/02 07:54:21;;;;;;;3.00;1.35;;;10.60;82.30;;;;;;4981952;28;20038;-84
2021/05/02 07:56:46;;;;;;;3.75;1.30;;;10.70;80.10;;;;;;4982961;28;20040;-85
2021/05/02 07:59:14;;;;;;;5.30;1.40;;;10.80;80.60;;;;;;4998418;28;20121;-84
2021/05/02 08:01:40;;;;;;;4.72;1.58;;;10.90;79.40;;;;;;4998796;28;20138;-85
2021/05/02 08:04:10;;;;;;;3.10;1.00;;;10.90;79.40;;;;;;4998016;28;20084;-85
2021/05/02 08:06:36;;;;;;;5.38;1.80;;;11.00;81.30;;;;;;4981875;28;20499;-86
2021/05/02 08:09:02;;;;;;;5.35;1.65;;;11.10;79.70;;;;;;4982273;28;20026;-85
2021/05/02 08:11:28;;;;;;;5.50;1.20;;;11.20;79.40;;;;;;4997761;28;20058;-86
2021/05/02 08:13:53;;;;;;;3.60;1.00;;;11.30;77.00;;;;;;4998290;28;20034;-86
2021/05/02 08:16:20;;;;;;;1.98;1.00;;;11.30;76.30;;;;;;4997271;28;20466;-86
2021/05/02 08:18:45;;;;;;;3.83;1.20;;;11.40;76.70;;;;;;5014567;28;20069;-86
2021/05/02 08:21:11;;;;;;;2.97;1.10;;;11.50;76.90;;;;;;4981419;28;20470;-88
2021/05/02 08:23:37;;;;;;;3.80;1.27;;;11.50;76.20;;;;;;4984696;28;20473;-87
2021/05/02 08:26:03;;;;;;;5.00;1.55;;;11.60;73.20;;;;;;4985338;28;20508;-88
2021/05/02 08:28:32;;;;;;;2.58;1.30;;;11.70;75.00;;;;;;4981080;28;20084;-85
2021/05/02 08:30:58;;;;;;;4.65;1.27;;;11.70;73.00;;;;;;4968894;28;20032;-88
2021/05/02 08:33:24;;;;;;;2.63;1.00;;;11.80;71.60;;;;;;4963929;28;20030;-84
2021/05/02 08:35:49;;;;;;;1.58;0.82;;;11.80;71.30;;;;;;4996119;28;20022;-86
2021/05/02 08:38:15;;;;;;;2.53;1.20;;;11.90;71.80;;;;;;4991312;28;20095;-84
2021/05/02 08:40:42;;;;;;;1.13;0.75;;;12.00;71.10;;;;;;4991867;28;20022;-85
2021/05/02 08:43:08;;;;;;;4.40;1.15;;;12.10;71.50;;;;;;4997950;28;20026;-87
2021/05/02 08:45:35;;;;;;;2.72;1.17;;;12.10;69.70;;;;;;4976953;28;20038;-85
2021/05/02 08:48:00;;;;;;;2.38;1.08;;;12.20;67.80;;;;;;5003768;28;20422;-84
2021/05/02 08:50:26;;;;;;;4.13;1.08;;;12.20;69.40;;;;;;4986930;28;20021;-85
2021/05/02 08:52:52;;;;;;;4.82;1.73;;;12.30;67.30;;;;;;5007493;28;20034;-86
2021/05/02 08:55:19;;;;;;;3.60;1.00;;;12.30;68.30;;;;;;4997373;28;20121;-87
2021/05/02 08:57:45;;;;;;;2.20;1.10;;;12.30;67.50;;;;;;4975183;28;20030;-85
2021/05/02 09:00:11;;;;;;;2.38;1.10;;;12.40;69.10;;;;;;4980454;28;20497;-87
2021/05/02 09:02:37;;;;;;;4.40;1.23;;;12.50;68.10;;;;;;4996485;28;20505;-88
2021/05/02 09:05:06;;;;;;;2.58;0.90;;;12.60;69.80;;;;;;4996815;28;20057;-86
2021/05/02 09:07:50;;;;;;;3.50;1.23;;;12.60;67.70;;;;;;4987893;28;20081;-89
2021/05/02 09:10:17;;;;;;;2.67;1.08;;;12.70;67.40;;;;;;4977767;28;20025;-86
2021/05/02 09:13:01;;;;;;;3.80;1.10;;;12.70;67.00;;;;;;4982964;28;20033;-87
2021/05/02 09:15:27;;;;;;;2.88;0.90;;;12.90;67.20;;;;;;4996896;28;20101;-87
2021/05/02 09:18:14;;;;;;;2.90;1.05;;;12.90;65.80;;;;;;4988489;28;20057;-85
2021/05/02 09:20:48;;;;;;;6.03;1.38;;;13.00;66.40;;;;;;4997124;28;20041;-87
2021/05/02 09:23:15;;;;;;;2.45;1.10;;;13.10;64.90;;;;;;4995329;28;20026;-88
2021/05/02 09:25:45;;;;;;;2.28;0.82;;;13.20;65.20;;;;;;4970118;28;20100;-85
2021/05/02 09:28:11;;;;;;;1.80;0.70;;;13.20;66.00;;;;;;5014128;28;20057;-85
2021/05/02 09:30:36;;;;;;;2.00;0.98;;;13.30;67.20;;;;;;4980812;28;20026;-85
2021/05/02 09:33:02;;;;;;;2.70;0.75;;;13.40;64.50;;;;;;4981742;28;20113;-86
2021/05/02 09:35:30;;;;;;;2.45;0.80;;;13.50;64.20;;;;;;4981055;28;20045;-85
2021/05/02 09:38:16;;;;;;;3.85;0.80;;;13.60;62.70;;;;;;4995408;28;20530;-85
2021/05/02 09:40:53;;;;;;;1.48;0.70;;;13.60;63.20;;;;;;5013671;28;20033;-85
2021/05/02 09:43:43;;;;;;;4.47;0.95;;;13.70;59.80;;;;;;4975368;28;20435;-85
2021/05/02 09:46:42;;;;;;;3.20;1.00;;;13.70;60.10;;;;;;5013582;28;20022;-85
2021/05/02 09:49:21;;;;;;;1.80;0.80;;;13.80;60.40;;;;;;4980389;28;20038;-85
2021/05/02 09:51:49;;;;;;;1.63;0.70;;;13.80;62.80;;;;;;4979790;28;20041;-89
2021/05/02 09:54:22;;;;;;;2.17;0.70;;;13.90;59.80;;;;;;4997329;28;20463;-85
2021/05/02 09:57:02;;;;;;;2.28;0.85;;;13.80;59.70;;;;;;4980978;28;20377;-87
2021/05/02 09:59:31;;;;;;;2.28;0.73;;;13.70;57.50;;;;;;4996522;28;20034;-85
2021/05/02 10:02:21;;;;;;;1.75;0.90;;;13.60;58.70;;;;;;5013959;28;20104;-89
2021/05/02 10:04:56;;;;;;;2.00;1.00;;;13.60;58.00;;;;;;4993859;28;20042;-87
2021/05/02 10:07:25;;;;;;;3.25;1.00;;;13.50;59.90;;;;;;4976155;28;20034;-86
2021/05/02 10:09:52;;;;;;;3.58;0.93;;;13.40;60.20;;;;;;4974446;28;20587;-89
2021/05/02 10:12:21;;;;;;;3.97;0.80;;;13.30;58.60;;;;;;4977408;28;20081;-88
2021/05/02 10:14:49;;;;;;;1.77;0.80;;;13.20;58.10;;;;;;4994978;28;20084;-88
2021/05/02 10:17:15;;;;;;;2.45;1.00;;;13.10;56.30;;;;;;4993989;28;20033;-88
2021/05/02 10:19:42;;;;;;;3.40;1.17;;;13.00;59.10;;;;;;4977620;28;20386;-89
2021/05/02 10:22:17;;;;;;;1.23;0.70;;;13.00;58.70;;;;;;4961968;28;20077;-88
2021/05/02 10:24:44;;;;;;;2.92;1.00;;;12.90;60.20;;;;;;4967318;28;20038;-87
2021/05/02 10:27:10;;;;;;;3.83;1.17;;;12.90;60.00;;;;;;4962295;28;20026;-88
2021/05/02 10:29:39;;;;;;;1.58;0.90;;;12.90;62.10;;;;;;4995401;28;20026;-88
2021/05/02 10:32:13;;;;;;;3.50;0.95;;;12.90;61.80;;;;;;4978017;28;20029;-87
2021/05/02 10:38:01;;;;;;;0.73;0.70;;;13.20;61.00;;;;;;4997377;28;20025;-88
2021/05/02 10:40:30;;;;;;;2.33;0.80;;;13.30;60.50;;;;;;4967135;28;20031;-88
2021/05/02 10:43:01;;;;;;;2.47;0.85;;;13.40;61.00;;;;;;4980620;28;20026;-88
2021/05/02 10:45:42;;;;;;;1.67;1.10;;;13.50;59.70;;;;;;4980394;28;20030;-89
2021/05/02 10:48:14;;;;;;;2.72;0.88;;;13.60;57.40;;;;;;4978105;28;20022;-89
2021/05/02 10:50:59;;;;;;;2.67;0.95;;;13.70;58.20;;;;;;4980693;28;20113;-88
2021/05/02 10:53:52;;;;;;;0.93;0.60;;;13.70;57.60;;;;;;4997870;28;20034;-88
2021/05/02 10:56:40;;;;;;;2.20;0.95;;;13.80;58.80;;;;;;4967049;28;20031;-89
2021/05/02 10:59:06;;;;;;;2.42;0.88;;;13.90;56.40;;;;;;4979714;28;20352;-90
2021/05/02 11:01:32;;;;;;;1.58;0.65;;;13.90;56.60;;;;;;4981321;28;20125;-89
2021/05/02 11:04:08;;;;;;;;;;;;;;;;;;;;;
2021/05/02 11:06:39;;;;;;;1.20;0.73;;;14.00;57.80;;;;;;5000107;28;20058;-88
2021/05/02 11:09:09;;;;;;;1.70;0.80;;;14.10;57.60;;;;;;5016213;28;20112;-90
2021/05/02 11:11:49;;;;;;;1.83;0.90;;;14.10;58.10;;;;;;4989567;28;20050;-94
2021/05/02 11:14:17;;;;;;;1.10;0.70;;;14.20;55.90;;;;;;4997782;28;20509;-89
2021/05/02 11:17:10;;;;;;;0.70;0.70;;;14.20;56.70;;;;;;4998178;28;20022;-91
2021/05/02 11:19:35;;;;;;;2.42;0.77;;;14.20;57.10;;;;;;5001602;28;20083;-89
2021/05/02 11:22:06;;;;;;;1.38;0.68;;;14.20;57.10;;;;;;5017147;28;20034;-90
2021/05/02 11:32:38;;;;;;;2.70;0.90;;;13.90;56.30;;;;;;5015209;28;20026;-89
2021/05/02 11:35:03;;;;;;;1.67;0.90;;;13.80;58.00;;;;;;4998974;28;20033;-87
2021/05/02 11:37:45;;;;;;;2.50;1.02;;;13.80;59.90;;;;;;5015231;28;20045;-89
2021/05/02 11:40:29;;;;;;;2.72;1.10;;;13.80;61.00;;;;;;4999174;28;20036;-93
2021/05/02 11:43:06;;;;;;;2.08;1.20;;;13.70;58.60;;;;;;4999011;28;20029;-88
2021/05/02 11:45:42;;;;;;;2.75;1.60;;;13.70;57.50;;;;;;5010418;28;20463;-87
2021/05/02 11:48:12;;;;;;;3.10;1.70;;;13.60;58.70;;;;;;4997245;28;20026;-86
2021/05/02 11:50:40;;;;;;;3.88;1.60;;;13.50;59.80;;;;;;4998079;28;20033;-88
2021/05/02 11:53:06;;;;;;;6.97;2.33;;;13.40;58.80;;;;;;4994404;28;20034;-87
2021/05/02 12:02:28;;;;;;;5.40;1.65;;;13.10;59.80;;;;;;4957926;28;20132;-86
2021/05/02 12:05:02;;;;;;;4.05;1.60;;;13.00;60.10;;;;;;4939275;29;20051;-86
2021/05/02 12:07:28;;;;;;;3.15;1.38;;;12.90;62.20;;;;;;4936785;29;20138;-86
2021/05/02 12:09:53;;;;;;;3.92;1.90;;;12.90;62.80;;;;;;4936318;29;20079;-86
2021/05/02 12:12:19;;;;;;;8.15;2.83;;;12.90;65.00;;;;;;4919736;29;20051;-87
2021/05/02 12:14:45;;;;;;;4.45;2.00;;;12.90;64.50;;;;;;4919278;29;20038;-91
2021/05/02 12:17:10;;;;;;;2.30;1.33;;;12.90;63.70;;;;;;4977539;28;20084;-86
2021/05/02 12:19:37;;;;;;;5.30;2.22;;;12.90;65.20;;;;;;4978877;28;20103;-87
2021/05/02 12:22:03;;;;;;;4.43;1.98;;;13.00;65.60;;;;;;4977496;28;20121;-88
2021/05/02 12:24:33;;;;;;;4.32;1.90;;;13.10;63.50;;;;;;4994712;28;20041;-87
2021/05/02 12:27:07;;;;;;;3.33;1.83;;;13.10;63.10;;;;;;4995084;28;20038;-87
2021/05/02 12:29:35;;;;;;;4.60;1.75;;;13.10;64.20;;;;;;4978882;28;20019;-87
2021/05/02 12:32:04;;;;;;;3.65;1.52;;;13.20;62.30;;;;;;4980184;28;20022;-86
2021/05/02 12:34:35;;;;;;;2.33;1.40;;;13.20;62.90;;;;;;4979071;28;20036;-88
2021/05/02 12:37:13;;;;;;;2.67;1.35;;;13.40;63.10;;;;;;4978275;28;20886;-87
2021/05/02 12:39:40;;;;;;;2.20;1.33;;;13.40;60.30;;;;;;4978402;28;20037;-87
2021/05/02 12:42:07;;;;;;;1.85;1.08;;;13.50;59.70;;;;;;4988626;28;20447;-89
2021/05/02 12:44:34;;;;;;;4.18;0.95;;;13.50;59.40;;;;;;4975922;28;20110;-88
2021/05/02 12:47:02;;;;;;;1.10;0.70;;;13.70;58.00;;;;;;4992219;28;20467;-88
2021/05/02 12:49:30;;;;;;;2.13;0.95;;;13.80;57.70;;;;;;4994606;28;20026;-87
2021/05/02 12:52:04;;;;;;;3.17;1.23;;;13.80;58.40;;;;;;4994026;28;20475;-86
2021/05/02 12:54:36;;;;;;;2.50;0.90;;;13.90;57.30;;;;;;4974952;28;20034;-88
2021/05/02 12:57:10;;;;;;;1.85;0.80;;;14.00;59.20;;;;;;4991504;28;20105;-87
2021/05/02 13:02:29;;;;;;;1.77;0.90;;;14.20;59.80;;;;;;4980708;28;20085;-89
2021/05/02 13:05:11;;;;;;;2.13;1.00;;;14.20;57.80;;;;;;4994674;28;20031;-86
2021/05/02 13:07:47;;;;;;;1.98;0.80;;;14.30;58.70;;;;;;4977108;28;20069;-86
2021/05/02 13:10:20;;;;;;;1.42;1.20;;;14.40;58.60;;;;;;4959964;28;20034;-86
2021/05/02 13:13:00;;;;;;;2.85;1.00;;;14.40;58.50;;;;;;4990779;28;20029;-87
2021/05/02 13:15:32;;;;;;;1.80;0.90;;;14.40;58.40;;;;;;4976572;28;20117;-89
2021/05/02 13:18:03;;;;;;;1.23;0.80;;;14.40;59.10;;;;;;4992348;28;20030;-87
2021/05/02 13:20:48;;;;;;;;;;;14.40;58.60;;;;;;4977140;28;20073;-87
2021/05/02 13:23:39;;;;;;;2.13;0.80;;;14.30;55.90;;;;;;4977320;28;19949;-88
2021/05/02 13:26:14;;;;;;;2.35;0.80;;;14.30;58.40;;;;;;4990479;28;20093;-88
2021/05/02 13:29:00;;;;;;;1.80;1.05;;;14.30;56.70;;;;;;5008198;28;20093;-87